sensor_id;sensor_type;location;lat;lon;timestamp;P1;durP1;ratioP1;P2;durP2;ratioP2
19231;SDS011;9750;48.730;10.294;2022-07-29T00:01:28;6.40;;;5.50;;
19231;SDS011;9750;48.730;10.294;2022-07-29T00:03:55;5.85;;;5.32;;
19231;SDS011;9750;48.730;10.294;2022-07-29T00:06:22;6.88;;;5.60;;
19231;SDS011;9750;48.730;10.294;2022-07-29T00:08:50;7.40;;;6.25;;
19231;SDS011;9750;48.730;10.294;2022-07-29T00:11:17;6.07;;;5.55;;
19231;SDS011;9750;48.730;10.294;2022-07-29T00:13:44;6.03;;;5.43;;
19231;SDS011;9750;48.730;10.294;2022-07-29T00:16:11;8.77;;;5.40;;
19231;SDS011;9750;48.730;10.294;2022-07-29T00:18:40;5.45;;;4.93;;
19231;SDS011;9750;48.730;10.294;2022-07-29T00:21:08;5.25;;;4.43;;
19231;SDS011;9750;48.730;10.294;2022-07-29T00:23:35;4.38;;;4.00;;
19231;SDS011;9750;48.730;10.294;2022-07-29T00:26:03;4.47;;;4.07;;
19231;SDS011;9750;48.730;10.294;2022-07-29T00:28:30;4.82;;;4.43;;
19231;SDS011;9750;48.730;10.294;2022-07-29T00:30:58;4.63;;;4.22;;
19231;SDS011;9750;48.730;10.294;2022-07-29T00:33:25;4.57;;;4.28;;
19231;SDS011;9750;48.730;10.294;2022-07-29T00:35:54;4.63;;;4.22;;
19231;SDS011;9750;48.730;10.294;2022-07-29T00:38:20;4.40;;;3.95;;
19231;SDS011;9750;48.730;10.294;2022-07-29T00:40:48;4.22;;;3.83;;
19231;SDS011;9750;48.730;10.294;2022-07-29T00:43:16;4.15;;;3.83;;
19231;SDS011;9750;48.730;10.294;2022-07-29T00:45:44;4.47;;;4.07;;
19231;SDS011;9750;48.730;10.294;2022-07-29T00:48:12;4.53;;;4.13;;
19231;SDS011;9750;48.730;10.294;2022-07-29T00:50:39;4.00;;;3.63;;
19231;SDS011;9750;48.730;10.294;2022-07-29T00:53:08;3.80;;;3.50;;
19231;SDS011;9750;48.730;10.294;2022-07-29T00:55:38;3.75;;;3.42;;
19231;SDS011;9750;48.730;10.294;2022-07-29T00:58:05;4.18;;;3.80;;
19231;SDS011;9750;48.730;10.294;2022-07-29T01:00:33;4.13;;;3.70;;
19231;SDS011;9750;48.730;10.294;2022-07-29T01:03:02;4.03;;;3.63;;
19231;SDS011;9750;48.730;10.294;2022-07-29T01:05:29;4.30;;;3.78;;
19231;SDS011;9750;48.730;10.294;2022-07-29T01:07:57;4.13;;;3.72;;
19231;SDS011;9750;48.730;10.294;2022-07-29T01:10:27;4.47;;;4.07;;
19231;SDS011;9750;48.730;10.294;2022-07-29T01:12:56;4.10;;;3.70;;
19231;SDS011;9750;48.730;10.294;2022-07-29T01:15:25;4.70;;;4.30;;
19231;SDS011;9750;48.730;10.294;2022-07-29T01:17:56;4.63;;;4.22;;
19231;SDS011;9750;48.730;10.294;2022-07-29T01:20:30;5.13;;;4.73;;
19231;SDS011;9750;48.730;10.294;2022-07-29T01:23:20;5.73;;;4.40;;
19231;SDS011;9750;48.730;10.294;2022-07-29T01:26:26;4.90;;;4.50;;
19231;SDS011;9750;48.730;10.294;2022-07-29T01:29:04;4.90;;;4.50;;
19231;SDS011;9750;48.730;10.294;2022-07-29T01:34:30;4.83;;;4.37;;
19231;SDS011;9750;48.730;10.294;2022-07-29T01:37:03;5.13;;;4.73;;
19231;SDS011;9750;48.730;10.294;2022-07-29T01:39:35;4.70;;;4.30;;
19231;SDS011;9750;48.730;10.294;2022-07-29T01:42:06;4.70;;;4.33;;
19231;SDS011;9750;48.730;10.294;2022-07-29T01:44:45;5.20;;;4.80;;
19231;SDS011;9750;48.730;10.294;2022-07-29T01:47:18;5.30;;;4.80;;
19231;SDS011;9750;48.730;10.294;2022-07-29T01:49:50;6.20;;;4.87;;
19231;SDS011;9750;48.730;10.294;2022-07-29T01:52:23;5.00;;;4.60;;
19231;SDS011;9750;48.730;10.294;2022-07-29T01:54:58;5.80;;;5.30;;
19231;SDS011;9750;48.730;10.294;2022-07-29T01:57:29;5.80;;;5.30;;
19231;SDS011;9750;48.730;10.294;2022-07-29T02:00:02;6.03;;;5.07;;
19231;SDS011;9750;48.730;10.294;2022-07-29T02:02:31;5.00;;;4.60;;
19231;SDS011;9750;48.730;10.294;2022-07-29T02:05:00;5.23;;;4.70;;
19231;SDS011;9750;48.730;10.294;2022-07-29T02:07:29;5.77;;;5.27;;
19231;SDS011;9750;48.730;10.294;2022-07-29T02:09:59;6.23;;;5.63;;
19231;SDS011;9750;48.730;10.294;2022-07-29T02:12:28;5.90;;;5.30;;
19231;SDS011;9750;48.730;10.294;2022-07-29T02:14:59;6.63;;;6.03;;
19231;SDS011;9750;48.730;10.294;2022-07-29T02:17:31;6.47;;;5.50;;
19231;SDS011;9750;48.730;10.294;2022-07-29T02:20:04;6.30;;;5.80;;
19231;SDS011;9750;48.730;10.294;2022-07-29T02:22:33;6.27;;;5.53;;
19231;SDS011;9750;48.730;10.294;2022-07-29T02:25:04;6.37;;;5.87;;
19231;SDS011;9750;48.730;10.294;2022-07-29T02:27:33;7.03;;;6.43;;
19231;SDS011;9750;48.730;10.294;2022-07-29T02:30:03;7.00;;;6.37;;
19231;SDS011;9750;48.730;10.294;2022-07-29T02:32:32;6.63;;;5.23;;
19231;SDS011;9750;48.730;10.294;2022-07-29T02:35:02;7.17;;;6.57;;
19231;SDS011;9750;48.730;10.294;2022-07-29T02:37:30;7.13;;;6.53;;
19231;SDS011;9750;48.730;10.294;2022-07-29T02:39:59;7.37;;;6.67;;
19231;SDS011;9750;48.730;10.294;2022-07-29T02:42:28;7.03;;;6.43;;
19231;SDS011;9750;48.730;10.294;2022-07-29T02:44:57;7.07;;;6.47;;
19231;SDS011;9750;48.730;10.294;2022-07-29T02:47:27;6.97;;;6.37;;
19231;SDS011;9750;48.730;10.294;2022-07-29T02:50:02;6.73;;;6.13;;
19231;SDS011;9750;48.730;10.294;2022-07-29T02:52:34;6.33;;;5.73;;
19231;SDS011;9750;48.730;10.294;2022-07-29T02:55:07;7.43;;;6.77;;
19231;SDS011;9750;48.730;10.294;2022-07-29T02:57:42;7.60;;;6.90;;
19231;SDS011;9750;48.730;10.294;2022-07-29T03:00:13;8.67;;;7.87;;
19231;SDS011;9750;48.730;10.294;2022-07-29T03:05:49;6.90;;;6.20;;
19231;SDS011;9750;48.730;10.294;2022-07-29T03:08:21;7.40;;;6.80;;
19231;SDS011;9750;48.730;10.294;2022-07-29T03:10:49;7.33;;;5.97;;
19231;SDS011;9750;48.730;10.294;2022-07-29T03:13:19;7.23;;;6.53;;
19231;SDS011;9750;48.730;10.294;2022-07-29T03:15:47;8.27;;;7.57;;
19231;SDS011;9750;48.730;10.294;2022-07-29T03:18:15;6.70;;;6.20;;
19231;SDS011;9750;48.730;10.294;2022-07-29T03:20:42;7.40;;;6.70;;
19231;SDS011;9750;48.730;10.294;2022-07-29T03:23:11;8.03;;;7.27;;
19231;SDS011;9750;48.730;10.294;2022-07-29T03:25:46;7.07;;;6.47;;
19231;SDS011;9750;48.730;10.294;2022-07-29T03:28:13;7.13;;;6.53;;
19231;SDS011;9750;48.730;10.294;2022-07-29T03:30:41;7.90;;;7.30;;
19231;SDS011;9750;48.730;10.294;2022-07-29T03:36:30;7.00;;;6.47;;
19231;SDS011;9750;48.730;10.294;2022-07-29T03:38:59;6.77;;;6.20;;
19231;SDS011;9750;48.730;10.294;2022-07-29T03:41:28;8.30;;;7.60;;
19231;SDS011;9750;48.730;10.294;2022-07-29T03:43:57;6.50;;;5.90;;
19231;SDS011;9750;48.730;10.294;2022-07-29T03:46:26;6.50;;;6.00;;
19231;SDS011;9750;48.730;10.294;2022-07-29T03:48:58;7.97;;;7.27;;
19231;SDS011;9750;48.730;10.294;2022-07-29T03:51:27;7.40;;;6.70;;
19231;SDS011;9750;48.730;10.294;2022-07-29T03:53:55;7.10;;;6.40;;
19231;SDS011;9750;48.730;10.294;2022-07-29T03:56:24;7.00;;;6.30;;
19231;SDS011;9750;48.730;10.294;2022-07-29T03:58:53;6.73;;;6.13;;
19231;SDS011;9750;48.730;10.294;2022-07-29T04:01:22;6.37;;;5.87;;
19231;SDS011;9750;48.730;10.294;2022-07-29T04:03:50;6.53;;;5.70;;
19231;SDS011;9750;48.730;10.294;2022-07-29T04:06:17;6.67;;;5.97;;
19231;SDS011;9750;48.730;10.294;2022-07-29T04:08:45;6.20;;;5.70;;
19231;SDS011;9750;48.730;10.294;2022-07-29T04:11:12;5.63;;;5.13;;
19231;SDS011;9750;48.730;10.294;2022-07-29T04:13:41;7.20;;;6.60;;
19231;SDS011;9750;48.730;10.294;2022-07-29T04:16:08;6.90;;;6.30;;
19231;SDS011;9750;48.730;10.294;2022-07-29T04:18:35;8.10;;;7.37;;
19231;SDS011;9750;48.730;10.294;2022-07-29T04:21:03;7.63;;;6.90;;
19231;SDS011;9750;48.730;10.294;2022-07-29T04:23:30;8.43;;;7.63;;
19231;SDS011;9750;48.730;10.294;2022-07-29T04:25:58;9.60;;;8.80;;
19231;SDS011;9750;48.730;10.294;2022-07-29T04:28:26;7.23;;;6.63;;
19231;SDS011;9750;48.730;10.294;2022-07-29T04:30:55;6.83;;;6.23;;
19231;SDS011;9750;48.730;10.294;2022-07-29T04:33:22;8.03;;;7.37;;
19231;SDS011;9750;48.730;10.294;2022-07-29T04:35:50;7.90;;;7.20;;
19231;SDS011;9750;48.730;10.294;2022-07-29T04:38:17;7.53;;;6.83;;
19231;SDS011;9750;48.730;10.294;2022-07-29T04:40:44;8.27;;;7.47;;
19231;SDS011;9750;48.730;10.294;2022-07-29T04:43:12;9.10;;;8.27;;
19231;SDS011;9750;48.730;10.294;2022-07-29T04:45:40;8.40;;;7.70;;
19231;SDS011;9750;48.730;10.294;2022-07-29T04:48:09;8.63;;;7.93;;
19231;SDS011;9750;48.730;10.294;2022-07-29T04:50:37;8.50;;;7.70;;
19231;SDS011;9750;48.730;10.294;2022-07-29T04:53:05;8.80;;;8.10;;
19231;SDS011;9750;48.730;10.294;2022-07-29T04:55:33;8.43;;;7.73;;
19231;SDS011;9750;48.730;10.294;2022-07-29T04:58:01;8.63;;;7.70;;
19231;SDS011;9750;48.730;10.294;2022-07-29T05:00:29;7.97;;;7.27;;
19231;SDS011;9750;48.730;10.294;2022-07-29T05:05:42;7.70;;;7.00;;
19231;SDS011;9750;48.730;10.294;2022-07-29T05:08:10;8.00;;;6.30;;
19231;SDS011;9750;48.730;10.294;2022-07-29T05:10:37;7.33;;;6.63;;
19231;SDS011;9750;48.730;10.294;2022-07-29T05:13:15;7.33;;;6.63;;
19231;SDS011;9750;48.730;10.294;2022-07-29T05:15:42;6.83;;;6.23;;
19231;SDS011;9750;48.730;10.294;2022-07-29T05:18:09;7.93;;;7.20;;
19231;SDS011;9750;48.730;10.294;2022-07-29T05:20:38;8.10;;;7.40;;
19231;SDS011;9750;48.730;10.294;2022-07-29T05:26:01;7.57;;;6.93;;
19231;SDS011;9750;48.730;10.294;2022-07-29T05:28:29;8.07;;;7.37;;
19231;SDS011;9750;48.730;10.294;2022-07-29T05:31:00;9.57;;;7.30;;
19231;SDS011;9750;48.730;10.294;2022-07-29T05:33:27;8.20;;;7.40;;
19231;SDS011;9750;48.730;10.294;2022-07-29T05:35:56;9.93;;;7.80;;
19231;SDS011;9750;48.730;10.294;2022-07-29T05:38:23;9.20;;;7.63;;
19231;SDS011;9750;48.730;10.294;2022-07-29T05:40:51;17.57;;;8.43;;
19231;SDS011;9750;48.730;10.294;2022-07-29T05:43:18;9.53;;;8.63;;
19231;SDS011;9750;48.730;10.294;2022-07-29T05:45:46;9.37;;;8.57;;
19231;SDS011;9750;48.730;10.294;2022-07-29T05:48:13;12.43;;;10.07;;
19231;SDS011;9750;48.730;10.294;2022-07-29T05:50:40;11.37;;;9.73;;
19231;SDS011;9750;48.730;10.294;2022-07-29T05:53:09;14.30;;;13.00;;
19231;SDS011;9750;48.730;10.294;2022-07-29T05:55:37;15.93;;;14.43;;
19231;SDS011;9750;48.730;10.294;2022-07-29T05:58:04;17.80;;;16.10;;
19231;SDS011;9750;48.730;10.294;2022-07-29T06:00:32;16.57;;;14.87;;
19231;SDS011;9750;48.730;10.294;2022-07-29T06:02:59;17.43;;;15.73;;
19231;SDS011;9750;48.730;10.294;2022-07-29T06:05:26;17.80;;;16.10;;
19231;SDS011;9750;48.730;10.294;2022-07-29T06:07:54;16.03;;;14.47;;
19231;SDS011;9750;48.730;10.294;2022-07-29T06:10:23;15.37;;;13.97;;
19231;SDS011;9750;48.730;10.294;2022-07-29T06:12:52;14.33;;;13.00;;
19231;SDS011;9750;48.730;10.294;2022-07-29T06:15:19;16.15;;;13.57;;
19231;SDS011;9750;48.730;10.294;2022-07-29T06:17:46;14.90;;;13.60;;
19231;SDS011;9750;48.730;10.294;2022-07-29T06:20:14;15.15;;;13.65;;
19231;SDS011;9750;48.730;10.294;2022-07-29T06:25:16;15.27;;;13.88;;
19231;SDS011;9750;48.730;10.294;2022-07-29T06:27:45;15.05;;;13.70;;
19231;SDS011;9750;48.730;10.294;2022-07-29T06:30:12;15.38;;;13.98;;
19231;SDS011;9750;48.730;10.294;2022-07-29T06:32:40;14.88;;;13.55;;
19231;SDS011;9750;48.730;10.294;2022-07-29T06:35:08;14.82;;;13.65;;
19231;SDS011;9750;48.730;10.294;2022-07-29T06:37:35;14.90;;;13.70;;
19231;SDS011;9750;48.730;10.294;2022-07-29T06:40:03;15.70;;;14.30;;
19231;SDS011;9750;48.730;10.294;2022-07-29T06:42:50;14.65;;;13.20;;
19231;SDS011;9750;48.730;10.294;2022-07-29T06:45:17;14.50;;;13.05;;
19231;SDS011;9750;48.730;10.294;2022-07-29T06:47:44;14.05;;;12.75;;
19231;SDS011;9750;48.730;10.294;2022-07-29T06:50:12;14.52;;;13.13;;
19231;SDS011;9750;48.730;10.294;2022-07-29T06:52:39;15.10;;;13.80;;
19231;SDS011;9750;48.730;10.294;2022-07-29T06:55:07;15.02;;;13.55;;
19231;SDS011;9750;48.730;10.294;2022-07-29T06:57:35;14.77;;;13.32;;
19231;SDS011;9750;48.730;10.294;2022-07-29T07:00:04;15.10;;;13.57;;
19231;SDS011;9750;48.730;10.294;2022-07-29T07:02:32;15.48;;;14.07;;
19231;SDS011;9750;48.730;10.294;2022-07-29T07:05:00;15.35;;;13.80;;
19231;SDS011;9750;48.730;10.294;2022-07-29T07:07:27;15.23;;;13.82;;
19231;SDS011;9750;48.730;10.294;2022-07-29T07:09:54;13.98;;;12.57;;
19231;SDS011;9750;48.730;10.294;2022-07-29T07:12:21;14.15;;;12.68;;
19231;SDS011;9750;48.730;10.294;2022-07-29T07:14:49;13.65;;;12.55;;
19231;SDS011;9750;48.730;10.294;2022-07-29T07:17:18;13.38;;;12.18;;
19231;SDS011;9750;48.730;10.294;2022-07-29T07:19:45;13.98;;;12.77;;
19231;SDS011;9750;48.730;10.294;2022-07-29T07:22:21;13.25;;;12.07;;
19231;SDS011;9750;48.730;10.294;2022-07-29T07:24:48;13.43;;;12.15;;
19231;SDS011;9750;48.730;10.294;2022-07-29T07:27:16;13.15;;;11.77;;
19231;SDS011;9750;48.730;10.294;2022-07-29T07:29:43;12.82;;;11.75;;
19231;SDS011;9750;48.730;10.294;2022-07-29T07:32:10;13.00;;;11.82;;
19231;SDS011;9750;48.730;10.294;2022-07-29T07:34:40;14.18;;;12.95;;
19231;SDS011;9750;48.730;10.294;2022-07-29T07:37:07;13.88;;;12.23;;
19231;SDS011;9750;48.730;10.294;2022-07-29T07:39:34;13.25;;;12.05;;
19231;SDS011;9750;48.730;10.294;2022-07-29T07:42:02;13.73;;;12.52;;
19231;SDS011;9750;48.730;10.294;2022-07-29T07:44:29;18.48;;;16.48;;
19231;SDS011;9750;48.730;10.294;2022-07-29T07:46:56;15.02;;;13.52;;
19231;SDS011;9750;48.730;10.294;2022-07-29T07:49:24;13.15;;;11.88;;
19231;SDS011;9750;48.730;10.294;2022-07-29T07:51:53;12.57;;;11.40;;
19231;SDS011;9750;48.730;10.294;2022-07-29T07:54:20;12.07;;;11.00;;
19231;SDS011;9750;48.730;10.294;2022-07-29T07:56:48;12.90;;;11.60;;
19231;SDS011;9750;48.730;10.294;2022-07-29T07:59:16;13.55;;;12.45;;
19231;SDS011;9750;48.730;10.294;2022-07-29T08:01:43;13.85;;;12.50;;
19231;SDS011;9750;48.730;10.294;2022-07-29T08:04:11;14.23;;;12.27;;
19231;SDS011;9750;48.730;10.294;2022-07-29T08:06:38;12.82;;;11.73;;
19231;SDS011;9750;48.730;10.294;2022-07-29T08:09:07;12.68;;;11.48;;
19231;SDS011;9750;48.730;10.294;2022-07-29T08:11:34;12.63;;;11.45;;
19231;SDS011;9750;48.730;10.294;2022-07-29T08:14:02;12.27;;;11.07;;
19231;SDS011;9750;48.730;10.294;2022-07-29T08:16:29;10.55;;;9.57;;
19231;SDS011;9750;48.730;10.294;2022-07-29T08:18:56;12.60;;;11.32;;
19231;SDS011;9750;48.730;10.294;2022-07-29T08:21:24;10.50;;;9.60;;
19231;SDS011;9750;48.730;10.294;2022-07-29T08:23:51;11.30;;;9.43;;
19231;SDS011;9750;48.730;10.294;2022-07-29T08:26:40;9.02;;;8.25;;
19231;SDS011;9750;48.730;10.294;2022-07-29T08:29:08;8.98;;;8.18;;
19231;SDS011;9750;48.730;10.294;2022-07-29T08:31:36;9.30;;;7.88;;
19231;SDS011;9750;48.730;10.294;2022-07-29T08:34:03;8.20;;;7.40;;
19231;SDS011;9750;48.730;10.294;2022-07-29T08:36:32;8.63;;;7.93;;
19231;SDS011;9750;48.730;10.294;2022-07-29T08:39:00;8.25;;;7.45;;
19231;SDS011;9750;48.730;10.294;2022-07-29T08:41:28;8.50;;;7.57;;
19231;SDS011;9750;48.730;10.294;2022-07-29T08:43:58;7.10;;;6.40;;
19231;SDS011;9750;48.730;10.294;2022-07-29T08:46:25;6.40;;;5.90;;
19231;SDS011;9750;48.730;10.294;2022-07-29T08:48:53;6.53;;;5.93;;
19231;SDS011;9750;48.730;10.294;2022-07-29T08:51:21;6.90;;;6.25;;
19231;SDS011;9750;48.730;10.294;2022-07-29T08:53:50;7.15;;;6.55;;
19231;SDS011;9750;48.730;10.294;2022-07-29T08:56:18;7.20;;;6.55;;
19231;SDS011;9750;48.730;10.294;2022-07-29T08:58:46;7.25;;;6.63;;
19231;SDS011;9750;48.730;10.294;2022-07-29T09:04:19;6.10;;;5.30;;
19231;SDS011;9750;48.730;10.294;2022-07-29T09:06:47;7.60;;;5.47;;
19231;SDS011;9750;48.730;10.294;2022-07-29T09:09:17;5.88;;;5.38;;
19231;SDS011;9750;48.730;10.294;2022-07-29T09:11:55;6.47;;;5.88;;
19231;SDS011;9750;48.730;10.294;2022-07-29T09:14:22;6.70;;;5.50;;
19231;SDS011;9750;48.730;10.294;2022-07-29T09:16:52;5.70;;;5.20;;
19231;SDS011;9750;48.730;10.294;2022-07-29T09:19:25;5.80;;;5.30;;
19231;SDS011;9750;48.730;10.294;2022-07-29T09:21:54;5.05;;;4.55;;
19231;SDS011;9750;48.730;10.294;2022-07-29T09:24:25;5.10;;;4.63;;
19231;SDS011;9750;48.730;10.294;2022-07-29T09:27:18;6.03;;;5.38;;
19231;SDS011;9750;48.730;10.294;2022-07-29T09:29:47;6.78;;;5.07;;
19231;SDS011;9750;48.730;10.294;2022-07-29T09:32:24;5.88;;;5.28;;
19231;SDS011;9750;48.730;10.294;2022-07-29T09:37:42;7.57;;;5.72;;
19231;SDS011;9750;48.730;10.294;2022-07-29T09:40:13;5.55;;;5.07;;
19231;SDS011;9750;48.730;10.294;2022-07-29T09:42:42;6.10;;;5.57;;
19231;SDS011;9750;48.730;10.294;2022-07-29T09:45:10;8.05;;;4.97;;
19231;SDS011;9750;48.730;10.294;2022-07-29T09:47:43;6.80;;;5.75;;
19231;SDS011;9750;48.730;10.294;2022-07-29T09:50:15;6.18;;;5.55;;
19231;SDS011;9750;48.730;10.294;2022-07-29T09:52:52;6.07;;;5.50;;
19231;SDS011;9750;48.730;10.294;2022-07-29T09:55:19;6.85;;;5.60;;
19231;SDS011;9750;48.730;10.294;2022-07-29T10:00:49;6.93;;;6.30;;
19231;SDS011;9750;48.730;10.294;2022-07-29T10:03:23;7.28;;;5.63;;
19231;SDS011;9750;48.730;10.294;2022-07-29T10:06:03;7.07;;;6.28;;
19231;SDS011;9750;48.730;10.294;2022-07-29T10:08:32;6.63;;;6.00;;
19231;SDS011;9750;48.730;10.294;2022-07-29T10:11:08;8.18;;;7.28;;
19231;SDS011;9750;48.730;10.294;2022-07-29T10:13:36;7.50;;;6.60;;
19231;SDS011;9750;48.730;10.294;2022-07-29T10:16:05;6.93;;;6.38;;
19231;SDS011;9750;48.730;10.294;2022-07-29T10:18:35;7.32;;;6.63;;
19231;SDS011;9750;48.730;10.294;2022-07-29T10:21:04;7.63;;;6.93;;
19231;SDS011;9750;48.730;10.294;2022-07-29T10:23:31;7.82;;;7.13;;
19231;SDS011;9750;48.730;10.294;2022-07-29T10:26:00;11.60;;;6.85;;
19231;SDS011;9750;48.730;10.294;2022-07-29T10:28:28;6.68;;;6.10;;
19231;SDS011;9750;48.730;10.294;2022-07-29T10:30:59;7.65;;;6.68;;
19231;SDS011;9750;48.730;10.294;2022-07-29T10:33:33;7.82;;;6.10;;
19231;SDS011;9750;48.730;10.294;2022-07-29T10:36:23;7.95;;;6.15;;
19231;SDS011;9750;48.730;10.294;2022-07-29T10:39:05;7.13;;;6.43;;
19231;SDS011;9750;48.730;10.294;2022-07-29T10:41:57;6.40;;;5.82;;
19231;SDS011;9750;48.730;10.294;2022-07-29T10:44:32;6.28;;;5.68;;
19231;SDS011;9750;48.730;10.294;2022-07-29T10:47:00;6.75;;;6.15;;
19231;SDS011;9750;48.730;10.294;2022-07-29T10:49:29;6.60;;;6.00;;
19231;SDS011;9750;48.730;10.294;2022-07-29T10:51:57;6.47;;;5.85;;
19231;SDS011;9750;48.730;10.294;2022-07-29T10:54:37;6.63;;;6.00;;
19231;SDS011;9750;48.730;10.294;2022-07-29T10:57:13;6.53;;;5.93;;
19231;SDS011;9750;48.730;10.294;2022-07-29T10:59:41;6.82;;;6.20;;
19231;SDS011;9750;48.730;10.294;2022-07-29T11:05:11;6.10;;;5.50;;
19231;SDS011;9750;48.730;10.294;2022-07-29T11:07:40;7.03;;;5.63;;
19231;SDS011;9750;48.730;10.294;2022-07-29T11:10:48;5.60;;;5.10;;
19231;SDS011;9750;48.730;10.294;2022-07-29T11:16:17;6.45;;;5.93;;
19231;SDS011;9750;48.730;10.294;2022-07-29T11:21:49;7.20;;;6.38;;
19231;SDS011;9750;48.730;10.294;2022-07-29T11:24:19;7.38;;;6.68;;
19231;SDS011;9750;48.730;10.294;2022-07-29T11:29:39;6.97;;;6.32;;
19231;SDS011;9750;48.730;10.294;2022-07-29T11:32:15;7.03;;;6.35;;
19231;SDS011;9750;48.730;10.294;2022-07-29T11:34:46;9.38;;;6.72;;
19231;SDS011;9750;48.730;10.294;2022-07-29T11:37:18;8.10;;;7.03;;
19231;SDS011;9750;48.730;10.294;2022-07-29T11:39:49;6.90;;;6.30;;
19231;SDS011;9750;48.730;10.294;2022-07-29T11:42:40;6.88;;;6.22;;
19231;SDS011;9750;48.730;10.294;2022-07-29T11:45:24;6.82;;;6.15;;
19231;SDS011;9750;48.730;10.294;2022-07-29T11:47:58;8.68;;;7.95;;
19231;SDS011;9750;48.730;10.294;2022-07-29T11:50:30;9.00;;;8.18;;
19231;SDS011;9750;48.730;10.294;2022-07-29T11:53:01;7.72;;;6.20;;
19231;SDS011;9750;48.730;10.294;2022-07-29T11:55:29;6.03;;;5.53;;
19231;SDS011;9750;48.730;10.294;2022-07-29T11:58:01;5.60;;;5.00;;
19231;SDS011;9750;48.730;10.294;2022-07-29T12:00:29;7.68;;;5.10;;
19231;SDS011;9750;48.730;10.294;2022-07-29T12:02:58;5.50;;;5.10;;
19231;SDS011;9750;48.730;10.294;2022-07-29T12:05:30;5.28;;;4.57;;
19231;SDS011;9750;48.730;10.294;2022-07-29T12:08:11;5.47;;;4.65;;
19231;SDS011;9750;48.730;10.294;2022-07-29T12:10:41;5.03;;;4.00;;
19231;SDS011;9750;48.730;10.294;2022-07-29T12:13:09;4.13;;;3.83;;
19231;SDS011;9750;48.730;10.294;2022-07-29T12:15:37;4.53;;;4.13;;
19231;SDS011;9750;48.730;10.294;2022-07-29T12:18:12;4.22;;;3.58;;
19231;SDS011;9750;48.730;10.294;2022-07-29T12:20:41;4.68;;;4.13;;
19231;SDS011;9750;48.730;10.294;2022-07-29T12:23:10;4.22;;;3.83;;
19231;SDS011;9750;48.730;10.294;2022-07-29T12:25:39;5.75;;;4.50;;
19231;SDS011;9750;48.730;10.294;2022-07-29T12:28:08;4.50;;;4.10;;
19231;SDS011;9750;48.730;10.294;2022-07-29T12:30:41;4.63;;;3.97;;
19231;SDS011;9750;48.730;10.294;2022-07-29T12:33:16;4.78;;;4.18;;
19231;SDS011;9750;48.730;10.294;2022-07-29T12:35:47;4.40;;;4.00;;
19231;SDS011;9750;48.730;10.294;2022-07-29T12:38:18;4.22;;;3.83;;
19231;SDS011;9750;48.730;10.294;2022-07-29T12:40:46;5.88;;;3.78;;
19231;SDS011;9750;48.730;10.294;2022-07-29T12:43:16;4.25;;;3.88;;
19231;SDS011;9750;48.730;10.294;2022-07-29T12:45:45;4.68;;;4.03;;
19231;SDS011;9750;48.730;10.294;2022-07-29T12:48:15;3.70;;;3.35;;
19231;SDS011;9750;48.730;10.294;2022-07-29T12:50:55;6.65;;;3.70;;
19231;SDS011;9750;48.730;10.294;2022-07-29T12:53:27;3.88;;;3.47;;
19231;SDS011;9750;48.730;10.294;2022-07-29T12:55:55;4.15;;;3.75;;
19231;SDS011;9750;48.730;10.294;2022-07-29T12:58:30;4.32;;;3.90;;
19231;SDS011;9750;48.730;10.294;2022-07-29T13:01:03;3.90;;;3.50;;
19231;SDS011;9750;48.730;10.294;2022-07-29T13:03:42;4.85;;;4.25;;
19231;SDS011;9750;48.730;10.294;2022-07-29T13:09:02;4.60;;;4.00;;
19231;SDS011;9750;48.730;10.294;2022-07-29T13:11:32;4.20;;;3.80;;
19231;SDS011;9750;48.730;10.294;2022-07-29T13:14:01;4.78;;;4.38;;
19231;SDS011;9750;48.730;10.294;2022-07-29T13:16:28;4.47;;;4.07;;
19231;SDS011;9750;48.730;10.294;2022-07-29T13:19:09;4.57;;;3.88;;
19231;SDS011;9750;48.730;10.294;2022-07-29T13:21:37;5.18;;;4.70;;
19231;SDS011;9750;48.730;10.294;2022-07-29T13:24:07;4.20;;;3.90;;
19231;SDS011;9750;48.730;10.294;2022-07-29T13:26:35;5.22;;;4.45;;
19231;SDS011;9750;48.730;10.294;2022-07-29T13:29:06;4.55;;;4.15;;
19231;SDS011;9750;48.730;10.294;2022-07-29T13:31:34;4.70;;;4.30;;
19231;SDS011;9750;48.730;10.294;2022-07-29T13:34:02;5.05;;;4.65;;
19231;SDS011;9750;48.730;10.294;2022-07-29T13:36:29;4.80;;;4.40;;
19231;SDS011;9750;48.730;10.294;2022-07-29T13:38:57;4.70;;;4.30;;
19231;SDS011;9750;48.730;10.294;2022-07-29T13:41:27;4.93;;;4.32;;
19231;SDS011;9750;48.730;10.294;2022-07-29T13:43:55;4.82;;;4.35;;
19231;SDS011;9750;48.730;10.294;2022-07-29T13:46:22;4.88;;;4.47;;
19231;SDS011;9750;48.730;10.294;2022-07-29T13:48:49;5.38;;;4.88;;
19231;SDS011;9750;48.730;10.294;2022-07-29T13:51:17;5.88;;;4.88;;
19231;SDS011;9750;48.730;10.294;2022-07-29T13:53:44;5.40;;;4.80;;
19231;SDS011;9750;48.730;10.294;2022-07-29T13:56:12;5.70;;;4.75;;
19231;SDS011;9750;48.730;10.294;2022-07-29T13:58:40;5.32;;;4.82;;
19231;SDS011;9750;48.730;10.294;2022-07-29T14:01:08;6.80;;;5.03;;
19231;SDS011;9750;48.730;10.294;2022-07-29T14:03:35;6.00;;;4.90;;
19231;SDS011;9750;48.730;10.294;2022-07-29T14:06:06;5.72;;;4.80;;
19231;SDS011;9750;48.730;10.294;2022-07-29T14:08:33;5.10;;;4.68;;
19231;SDS011;9750;48.730;10.294;2022-07-29T14:11:01;6.45;;;5.30;;
19231;SDS011;9750;48.730;10.294;2022-07-29T14:13:28;5.47;;;4.85;;
19231;SDS011;9750;48.730;10.294;2022-07-29T14:15:57;4.35;;;3.95;;
19231;SDS011;9750;48.730;10.294;2022-07-29T14:18:24;5.05;;;4.60;;
19231;SDS011;9750;48.730;10.294;2022-07-29T14:20:52;4.90;;;4.40;;
19231;SDS011;9750;48.730;10.294;2022-07-29T14:23:19;4.97;;;4.47;;
19231;SDS011;9750;48.730;10.294;2022-07-29T14:25:47;5.65;;;4.05;;
19231;SDS011;9750;48.730;10.294;2022-07-29T14:28:15;4.75;;;4.35;;
19231;SDS011;9750;48.730;10.294;2022-07-29T14:30:42;4.57;;;4.10;;
19231;SDS011;9750;48.730;10.294;2022-07-29T14:36:33;4.68;;;3.45;;
19231;SDS011;9750;48.730;10.294;2022-07-29T14:39:00;3.60;;;3.30;;
19231;SDS011;9750;48.730;10.294;2022-07-29T14:41:27;4.80;;;4.40;;
19231;SDS011;9750;48.730;10.294;2022-07-29T14:43:55;5.07;;;4.60;;
19231;SDS011;9750;48.730;10.294;2022-07-29T14:46:22;3.85;;;3.55;;
19231;SDS011;9750;48.730;10.294;2022-07-29T14:48:50;5.10;;;3.95;;
19231;SDS011;9750;48.730;10.294;2022-07-29T14:51:17;4.57;;;3.50;;
19231;SDS011;9750;48.730;10.294;2022-07-29T14:53:46;4.57;;;3.70;;
19231;SDS011;9750;48.730;10.294;2022-07-29T14:56:15;5.03;;;4.20;;
19231;SDS011;9750;48.730;10.294;2022-07-29T14:58:42;4.75;;;4.35;;
19231;SDS011;9750;48.730;10.294;2022-07-29T15:01:10;5.00;;;4.18;;
19231;SDS011;9750;48.730;10.294;2022-07-29T15:03:37;4.82;;;4.43;;
19231;SDS011;9750;48.730;10.294;2022-07-29T15:06:04;5.90;;;5.40;;
19231;SDS011;9750;48.730;10.294;2022-07-29T15:08:32;5.60;;;4.97;;
19231;SDS011;9750;48.730;10.294;2022-07-29T15:11:00;5.95;;;5.45;;
19231;SDS011;9750;48.730;10.294;2022-07-29T15:13:28;6.65;;;6.13;;
19231;SDS011;9750;48.730;10.294;2022-07-29T15:15:55;6.72;;;6.10;;
19231;SDS011;9750;48.730;10.294;2022-07-29T15:18:22;6.72;;;6.13;;
19231;SDS011;9750;48.730;10.294;2022-07-29T15:20:50;7.20;;;6.50;;
19231;SDS011;9750;48.730;10.294;2022-07-29T15:23:17;6.82;;;6.22;;
19231;SDS011;9750;48.730;10.294;2022-07-29T15:25:44;7.00;;;6.35;;
19231;SDS011;9750;48.730;10.294;2022-07-29T15:28:14;7.72;;;6.63;;
19231;SDS011;9750;48.730;10.294;2022-07-29T15:30:41;7.60;;;6.90;;
19231;SDS011;9750;48.730;10.294;2022-07-29T15:33:08;8.13;;;7.43;;
19231;SDS011;9750;48.730;10.294;2022-07-29T15:35:36;7.32;;;6.80;;
19231;SDS011;9750;48.730;10.294;2022-07-29T15:38:04;7.85;;;7.10;;
19231;SDS011;9750;48.730;10.294;2022-07-29T15:40:31;7.78;;;7.07;;
19231;SDS011;9750;48.730;10.294;2022-07-29T15:45:54;7.43;;;6.72;;